Time;durP1;ratioP1;P1;durP2;ratioP2;P2;SDS_P1;SDS_P2;PMS_P1;PMS_P2;Temp;Humidity;BMP_temperature;BMP_pressure;BME280_temperature;BME280_humidity;BME280_pressure;Samples;Min_cycle;Max_cycle;Signal;HPM_P1;HPM_P2
2022/06/03 00:00:49;;;;;;;6.53;4.32;;;;;;;20.03;63.91;95759.78;5065693;28;20521;-80
2022/06/03 00:03:26;;;;;;;5.40;4.30;;;;;;;20.10;63.99;95769.53;5048082;28;20028;-80
2022/06/03 00:06:09;;;;;;;10.27;5.10;;;;;;;20.17;63.86;95758.53;5048298;28;20498;-80
2022/06/03 00:08:53;;;;;;;8.65;4.85;;;;;;;20.17;64.17;95755.81;5064788;28;20032;-79
2022/06/03 00:11:30;;;;;;;9.32;4.85;;;;;;;20.15;64.04;95760.69;5064880;28;20489;-79
2022/06/03 00:14:17;;;;;;;9.20;5.32;;;;;;;20.11;64.14;95760.31;5065826;28;20024;-80
2022/06/03 00:17:12;;;;;;;9.90;4.50;;;;;;;20.03;64.04;95759.78;5064349;28;20036;-80
2022/06/03 00:19:52;;;;;;;8.40;5.13;;;;;;;20.00;64.18;95750.16;5065293;28;20036;-79
2022/06/03 00:22:29;;;;;;;10.65;4.40;;;;;;;20.04;64.13;95753.28;5065554;28;20077;-80
2022/06/03 00:25:34;;;;;;;12.98;4.90;;;;;;;20.05;64.48;95754.94;5047497;28;20028;-79
2022/06/03 00:28:08;;;;;;;8.45;4.45;;;;;;;20.02;64.31;95758.94;5064379;28;20059;-79
2022/06/03 00:30:34;;;;;;;9.35;4.50;;;;;;;20.00;64.11;95761.06;5065173;28;20024;-80
2022/06/03 00:33:09;;;;;;;11.15;4.78;;;;;;;20.02;64.31;95761.66;5065003;28;20078;-80
2022/06/03 00:36:09;;;;;;;11.25;4.53;;;;;;;20.03;64.23;95757.91;5047603;28;20502;-80
2022/06/03 00:39:02;;;;;;;8.98;4.80;;;;;;;20.01;63.85;95766.25;5064675;28;20509;-80
2022/06/03 00:41:49;;;;;;;9.45;4.90;;;;;;;19.98;63.65;95769.44;5065008;28;20033;-80
2022/06/03 00:44:33;;;;;;;9.52;4.63;;;;;;;19.92;63.82;95762.19;5066596;28;20032;-79
2022/06/03 00:47:32;;;;;;;11.30;4.53;;;;;;;19.87;63.76;95765.59;5063846;28;20033;-80
2022/06/03 00:50:15;;;;;;;6.85;4.85;;;;;;;19.91;63.68;95770.59;5080536;28;20162;-79
2022/06/03 00:52:44;;;;;;;9.27;4.28;;;;;;;19.90;63.38;95767.03;5065878;28;20580;-81
2022/06/03 00:55:28;;;;;;;7.50;4.53;;;;;;;19.88;63.15;95760.97;5080177;28;20104;-79
2022/06/03 00:58:08;;;;;;;7.63;4.97;;;;;;;19.89;62.88;95762.66;5065758;28;20484;-80
2022/06/03 01:00:36;;;;;;;8.98;4.70;;;;;;;19.89;63.46;95763.47;5063756;28;20043;-80
2022/06/03 01:03:15;;;;;;;6.60;4.75;;;;;;;19.88;63.55;95758.25;5047505;28;20028;-79
2022/06/03 01:06:07;;;;;;;6.80;4.68;;;;;;;19.86;63.43;95755.75;5068131;28;20041;-81
2022/06/03 01:08:43;;;;;;;6.07;4.20;;;;;;;19.74;64.02;95758.44;5067139;28;20089;-80
2022/06/03 01:11:38;;;;;;;5.63;4.32;;;;;;;19.75;64.21;95757.38;5067840;28;20028;-79
2022/06/03 01:14:19;;;;;;;6.25;4.13;;;;;;;19.74;64.08;95754.88;5067033;28;20031;-79
2022/06/03 01:17:06;;;;;;;9.80;4.85;;;;;;;19.71;63.77;95761.59;5068166;28;20028;-79
2022/06/03 01:20:01;;;;;;;6.07;4.47;;;;;;;19.68;63.77;95755.78;5051300;28;20033;-79
2022/06/03 01:22:45;;;;;;;8.15;4.40;;;;;;;19.69;63.83;95752.84;5066888;28;20074;-79
2022/06/03 01:25:47;;;;;;;7.70;4.38;;;;;;;19.64;63.99;95750.81;5083422;28;20112;-79
2022/06/03 01:28:16;;;;;;;10.82;4.10;;;;;;;19.69;63.99;95752.00;5053685;28;20102;-79
2022/06/03 01:30:53;;;;;;;7.70;4.50;;;;;;;19.61;63.85;95744.97;5083292;28;20574;-79
2022/06/03 01:33:37;;;;;;;5.85;4.10;;;;;;;19.60;63.87;95746.84;5068609;28;20099;-79
2022/06/03 01:36:08;;;;;;;13.20;4.70;;;;;;;19.41;64.21;95747.94;5068528;28;20074;-79
2022/06/03 01:39:00;;;;;;;9.10;4.45;;;;;;;19.45;64.02;95741.81;5067786;28;20029;-80
2022/06/03 01:42:10;;;;;;;5.82;4.40;;;;;;;19.39;64.22;95743.53;5069015;28;20024;-80
2022/06/03 01:45:10;;;;;;;7.28;4.38;;;;;;;19.39;63.97;95762.56;5082599;28;20052;-80
2022/06/03 01:47:51;;;;;;;8.43;4.90;;;;;;;19.35;64.38;95758.63;5058612;28;20079;-80
2022/06/03 01:50:53;;;;;;;6.38;4.13;;;;;;;19.36;64.64;95763.00;5068090;28;20032;-79
2022/06/03 01:53:25;;;;;;;7.32;4.38;;;;;;;19.35;64.10;95758.63;5067598;28;20193;-79
2022/06/03 01:56:24;;;;;;;5.72;4.50;;;;;;;19.32;64.12;95760.97;5067625;28;20036;-80
2022/06/03 01:58:50;;;;;;;6.50;3.90;;;;;;;19.34;64.04;95759.72;5067131;28;20071;-80
2022/06/03 02:01:34;;;;;;;10.07;4.80;;;;;;;19.24;64.27;95753.94;5066952;28;20064;-79
2022/06/03 02:04:04;;;;;;;6.05;4.35;;;;;;;19.22;64.45;95754.16;5068608;28;20025;-79
2022/06/03 02:07:20;;;;;;;6.00;3.88;;;;;;;19.22;64.05;95751.44;5050034;28;20024;-80
2022/06/03 02:10:20;;;;;;;5.47;4.18;;;;;;;19.19;63.96;95742.91;5058235;28;20119;-79
2022/06/03 02:12:56;;;;;;;7.68;4.00;;;;;;;19.12;64.75;95753.84;5068811;28;20075;-79
2022/06/03 02:15:47;;;;;;;7.53;4.20;;;;;;;19.13;64.37;95750.06;5065495;28;20040;-79
2022/06/03 02:18:33;;;;;;;5.55;4.40;;;;;;;19.10;64.93;95764.13;5066406;28;20086;-79
2022/06/03 02:21:23;;;;;;;8.73;5.50;;;;;;;19.07;64.90;95768.06;5068192;28;20028;-79
2022/06/03 02:24:01;;;;;;;7.65;4.22;;;;;;;19.09;65.12;95760.56;5067593;28;20389;-80
2022/06/03 02:26:55;;;;;;;7.55;4.30;;;;;;;19.11;64.70;95758.47;5066069;28;20054;-80
2022/06/03 02:32:52;;;;;;;8.88;4.53;;;;;;;19.00;64.85;95761.88;5066138;28;20042;-79
2022/06/03 02:35:28;;;;;;;8.60;4.30;;;;;;;19.03;64.82;95766.84;5065195;28;20016;-79
2022/06/03 02:38:31;;;;;;;9.95;4.45;;;;;;;19.04;64.66;95768.50;5066404;28;20028;-80
2022/06/03 02:41:21;;;;;;;7.50;4.70;;;;;;;19.05;64.53;95777.50;5066148;28;20031;-81
2022/06/03 02:44:11;;;;;;;10.23;4.43;;;;;;;19.06;64.41;95777.28;5067188;28;20024;-79
2022/06/03 02:47:24;;;;;;;7.93;4.57;;;;;;;19.05;64.80;95778.34;5067240;28;20058;-82
2022/06/03 02:50:09;;;;;;;8.43;4.50;;;;;;;19.06;64.83;95777.28;5049851;28;20052;-79
2022/06/03 02:52:52;;;;;;;8.55;5.32;;;;;;;19.08;64.74;95782.50;5067403;28;20063;-79
2022/06/03 02:55:42;;;;;;;7.10;4.28;;;;;;;19.09;64.91;95776.88;5066121;28;20392;-80
2022/06/03 02:58:34;;;;;;;8.50;4.28;;;;;;;19.06;65.30;95781.88;5066320;28;20498;-81
2022/06/03 03:01:24;;;;;;;10.07;4.72;;;;;;;19.07;65.17;95780.84;5066000;28;20028;-81
2022/06/03 03:04:14;;;;;;;6.05;4.40;;;;;;;19.11;65.29;95782.06;5067189;28;20407;-80
2022/06/03 03:06:57;;;;;;;9.18;4.95;;;;;;;19.11;65.34;95784.78;5065730;28;20440;-79
2022/06/03 03:09:41;;;;;;;4.80;4.22;;;;;;;19.14;65.19;95779.75;5067311;28;20039;-79
2022/06/03 03:12:36;;;;;;;8.43;4.60;;;;;;;19.12;64.88;95776.41;5066713;28;20036;-81
2022/06/03 03:15:22;;;;;;;7.32;4.80;;;;;;;19.18;64.48;95779.31;5065079;28;20067;-79
2022/06/03 03:18:09;;;;;;;8.98;4.82;;;;;;;19.21;64.78;95787.84;5088103;28;20111;-80
2022/06/03 03:20:56;;;;;;;8.77;4.60;;;;;;;19.21;64.29;95792.44;5065607;28;20094;-80
2022/06/03 03:23:34;;;;;;;6.45;4.80;;;;;;;19.18;64.46;95792.91;5065909;28;20055;-80
2022/06/03 03:26:39;;;;;;;6.13;4.60;;;;;;;19.19;64.31;95791.84;5066916;28;20032;-80
2022/06/03 03:29:36;;;;;;;7.75;4.60;;;;;;;19.19;63.80;95797.28;5064794;28;20519;-80
2022/06/03 03:32:25;;;;;;;10.68;4.75;;;;;;;19.23;63.92;95793.88;5065177;28;20123;-80
2022/06/03 03:35:17;;;;;;;9.23;5.03;;;;;;;19.29;64.37;95797.59;5064970;28;20024;-79
2022/06/03 03:38:01;;;;;;;8.05;5.25;;;;;;;19.33;64.34;95798.00;5063804;28;20024;-79
2022/06/03 03:40:37;;;;;;;10.18;5.13;;;;;;;19.35;64.38;95802.16;5082114;28;20064;-79
2022/06/03 03:43:11;;;;;;;8.48;4.82;;;;;;;19.32;64.69;95794.44;5065074;28;20103;-79
2022/06/03 03:45:40;;;;;;;9.23;5.65;;;;;;;19.26;64.76;95803.50;5080630;28;20056;-79
2022/06/03 03:48:39;;;;;;;9.10;5.30;;;;;;;19.26;64.83;95800.78;5066698;28;20437;-79
2022/06/03 03:51:23;;;;;;;10.43;5.18;;;;;;;19.32;64.58;95812.63;5081139;28;20036;-80
2022/06/03 03:54:13;;;;;;;11.10;5.40;;;;;;;19.36;64.80;95814.69;5065303;28;20036;-79
2022/06/03 03:56:44;;;;;;;8.77;5.47;;;;;;;19.37;65.00;95815.53;5065747;28;20025;-79
2022/06/03 03:59:40;;;;;;;7.85;4.43;;;;;;;19.36;64.81;95814.69;5065002;28;20035;-80
2022/06/03 04:02:27;;;;;;;7.82;5.45;;;;;;;19.40;64.98;95823.22;5065688;28;20031;-80
2022/06/03 04:05:03;;;;;;;6.55;4.78;;;;;;;19.47;65.00;95823.19;5065620;28;20427;-80
2022/06/03 04:07:37;;;;;;;9.20;4.78;;;;;;;19.54;64.88;95821.22;5063648;28;20450;-80
2022/06/03 04:10:15;;;;;;;9.05;4.93;;;;;;;19.58;64.84;95818.88;5065647;28;20182;-79
2022/06/03 04:13:01;;;;;;;8.05;4.43;;;;;;;19.63;65.02;95813.59;5064368;28;20029;-81
2022/06/03 04:15:44;;;;;;;9.70;5.07;;;;;;;19.70;65.39;95813.53;5065205;28;20024;-81
2022/06/03 04:18:54;;;;;;;9.88;5.10;;;;;;;19.79;64.83;95805.88;5065852;28;20064;-80
2022/06/03 04:21:25;;;;;;;11.35;5.28;;;;;;;19.87;64.41;95811.88;5065948;28;20051;-80
2022/06/03 04:23:56;;;;;;;7.60;5.05;;;;;;;19.99;64.89;95808.41;5065597;28;20040;-78
2022/06/03 04:26:46;;;;;;;9.07;4.75;;;;;;;20.07;64.61;95812.72;5065593;28;20025;-81
2022/06/03 04:29:38;;;;;;;13.35;4.72;;;;;;;20.16;63.51;95803.19;5080140;28;20032;-80
2022/06/03 04:32:03;;;;;;;8.30;4.95;;;;;;;20.28;63.16;95803.22;5065827;28;20302;-80
2022/06/03 04:35:00;;;;;;;10.10;5.55;;;;;;;20.41;63.02;95807.66;5080305;28;20043;-79
2022/06/03 04:37:44;;;;;;;8.82;5.13;;;;;;;20.46;62.59;95804.25;5080648;28;20028;-79
2022/06/03 04:40:37;;;;;;;17.27;5.15;;;;;;;20.49;63.01;95812.78;5068625;28;20498;-79
2022/06/03 04:43:14;;;;;;;11.40;4.80;;;;;;;20.50;62.85;95819.09;5068330;28;20032;-79
2022/06/03 04:46:04;;;;;;;7.70;5.03;;;;;;;20.72;62.20;95824.00;5068951;28;20127;-79
2022/06/03 04:48:48;;;;;;;9.20;4.60;;;;;;;20.88;61.78;95836.13;5069699;28;20024;-79
2022/06/03 04:51:51;;;;;;;9.60;4.32;;;;;;;21.03;61.62;95837.63;5068715;28;20032;-79
2022/06/03 04:54:43;;;;;;;8.75;4.75;;;;;;;21.17;61.57;95843.69;5069182;28;20331;-79
2022/06/03 04:57:41;;;;;;;9.95;4.50;;;;;;;21.22;61.58;95852.00;5084739;28;20056;-79
2022/06/03 05:00:20;;;;;;;9.57;5.50;;;;;;;21.17;62.02;95849.16;5056068;28;20032;-80
2022/06/03 05:03:16;;;;;;;13.77;5.43;;;;;;;21.16;62.01;95850.22;5067698;28;20089;-80
2022/06/03 05:05:52;;;;;;;7.95;4.82;;;;;;;21.10;61.63;95861.00;5069048;28;20050;-80
2022/06/03 05:08:24;;;;;;;10.85;5.40;;;;;;;21.10;62.13;95863.72;5066725;28;20140;-80
2022/06/03 05:11:17;;;;;;;8.32;5.40;;;;;;;21.20;62.48;95851.44;5069269;28;20483;-80
2022/06/03 05:14:20;;;;;;;9.63;5.05;;;;;;;21.31;61.93;95858.78;5068622;28;20032;-80
2022/06/03 05:17:11;;;;;;;16.73;5.50;;;;;;;21.50;61.55;95850.50;5083310;28;20063;-80
2022/06/03 05:19:39;;;;;;;9.88;5.10;;;;;;;21.62;61.17;95853.22;5067616;28;20038;-79
2022/06/03 05:22:07;;;;;;;11.20;5.32;;;;;;;21.75;60.82;95849.41;5067807;28;20032;-79
2022/06/03 05:25:02;;;;;;;12.90;5.13;;;;;;;21.95;60.91;95848.25;5069113;28;20024;-78
2022/06/03 05:27:40;;;;;;;9.73;4.93;;;;;;;22.07;60.79;95856.44;5068280;28;20115;-79
2022/06/03 05:30:33;;;;;;;8.90;4.80;;;;;;;22.24;60.59;95856.50;5065873;28;20028;-79
2022/06/03 05:33:18;;;;;;;10.50;5.35;;;;;;;22.43;59.93;95862.63;5083942;28;20036;-79
2022/06/03 05:36:00;;;;;;;12.05;4.95;;;;;;;22.63;59.15;95858.69;5067645;28;20021;-79
2022/06/03 05:38:55;;;;;;;11.03;4.97;;;;;;;22.74;59.17;95856.13;5066332;28;20032;-79
2022/06/03 05:44:40;;;;;;;14.23;4.70;;;;;;;22.93;59.06;95865.81;5067470;28;20032;-78
2022/06/03 05:47:09;;;;;;;8.10;5.00;;;;;;;22.84;59.10;95868.09;5082466;28;20052;-78
2022/06/03 05:49:37;;;;;;;8.32;5.20;;;;;;;22.77;58.93;95869.31;5066660;28;20040;-80
2022/06/03 05:52:14;;;;;;;7.40;4.88;;;;;;;22.81;58.53;95856.84;5049135;28;20028;-80
2022/06/03 05:54:59;;;;;;;8.45;5.18;;;;;;;22.83;58.93;95850.03;5083548;28;20025;-80
2022/06/03 05:57:38;;;;;;;7.90;4.93;;;;;;;23.02;59.11;95851.72;5050256;28;20552;-80
2022/06/03 06:00:41;;;;;;;12.18;4.90;;;;;;;22.96;59.48;95851.63;5065888;28;20044;-80
2022/06/03 06:03:47;;;;;;;12.07;4.53;;;;;;;23.26;59.26;95846.94;5082845;28;20035;-79
2022/06/03 06:06:42;;;;;;;7.80;4.50;;;;;;;23.25;59.08;95845.28;5059699;28;20422;-80
2022/06/03 06:09:43;;;;;;;7.25;4.93;;;;;;;23.52;58.63;95836.41;5055912;28;20051;-80
2022/06/03 06:12:21;;;;;;;8.00;4.75;;;;;;;23.51;58.04;95834.78;5066553;28;20032;-80
2022/06/03 06:15:00;;;;;;;11.70;5.35;;;;;;;23.56;57.37;95834.00;5065855;28;20097;-80
2022/06/03 06:17:59;;;;;;;10.40;5.10;;;;;;;23.40;57.66;95831.06;5066541;28;20029;-79
2022/06/03 06:20:45;;;;;;;10.57;5.28;;;;;;;23.12;58.59;95826.47;5081999;28;20105;-79
2022/06/03 06:23:18;;;;;;;11.05;5.90;;;;;;;23.09;60.07;95823.13;5065259;28;20090;-81
2022/06/03 06:25:51;;;;;;;;;;;;;;;22.99;59.79;95825.69;5066027;28;20044;-80
2022/06/03 06:28:35;;;;;;;10.38;4.90;;;;;;;23.02;59.76;95827.13;5065129;28;19912;-79
2022/06/03 06:31:12;;;;;;;13.02;4.80;;;;;;;23.27;59.97;95823.97;5066058;28;20055;-79
2022/06/03 06:33:46;;;;;;;13.63;4.75;;;;;;;23.39;59.90;95823.91;5065075;28;20036;-79
2022/06/03 06:36:28;;;;;;;10.07;4.82;;;;;;;23.45;58.59;95820.19;5064675;28;20078;-79
2022/06/03 06:39:01;;;;;;;6.60;4.82;;;;;;;23.58;58.11;95816.28;5064992;28;20032;-79
2022/06/03 06:41:47;;;;;;;8.18;4.13;;;;;;;23.69;56.86;95813.69;5064984;28;20380;-80
2022/06/03 06:44:34;;;;;;;7.40;4.63;;;;;;;23.85;57.62;95820.19;5065895;28;20106;-80
2022/06/03 06:47:26;;;;;;;8.75;4.45;;;;;;;24.08;57.41;95821.06;5066197;28;20132;-79
2022/06/03 06:50:21;;;;;;;10.55;4.55;;;;;;;24.37;57.60;95817.31;5066324;28;20094;-80
2022/06/03 06:52:52;;;;;;;10.18;4.70;;;;;;;24.54;56.60;95809.84;5064156;28;20020;-79
2022/06/03 06:55:42;;;;;;;10.23;5.13;;;;;;;24.52;56.32;95813.94;5048833;28;20024;-79
2022/06/03 06:58:24;;;;;;;8.27;4.72;;;;;;;24.14;57.03;95809.06;5064639;28;20048;-80
2022/06/03 07:00:50;;;;;;;7.25;4.88;;;;;;;24.42;56.62;95811.91;5063919;28;20035;-81
2022/06/03 07:03:49;;;;;;;13.18;6.07;;;;;;;24.25;56.91;95806.47;5081282;28;20028;-80
2022/06/03 07:06:23;;;;;;;7.88;4.38;;;;;;;24.28;55.33;95812.28;5065432;28;20149;-79
2022/06/03 07:08:51;;;;;;;8.82;4.55;;;;;;;24.52;56.20;95803.78;5065716;28;20028;-80
2022/06/03 07:11:25;;;;;;;8.15;5.30;;;;;;;24.78;55.91;95801.28;5066049;28;20569;-81
2022/06/03 07:14:05;;;;;;;8.70;4.40;;;;;;;24.66;54.98;95795.16;5064154;28;20390;-80
2022/06/03 07:20:10;;;;;;;11.57;4.30;;;;;;;24.54;54.50;95798.88;5065520;28;20035;-80
2022/06/03 07:23:07;;;;;;;10.50;4.30;;;;;;;25.01;54.42;95791.13;5064120;28;20035;-81
2022/06/03 07:25:37;;;;;;;8.57;5.28;;;;;;;24.61;53.60;95790.44;5033772;28;20241;-81
2022/06/03 07:28:08;;;;;;;8.23;4.63;;;;;;;24.93;53.88;95800.66;5063812;28;20027;-80
2022/06/03 07:30:48;;;;;;;7.07;4.05;;;;;;;25.05;53.10;95791.44;5065487;28;20028;-81
2022/06/03 07:33:30;;;;;;;12.90;4.45;;;;;;;24.86;53.70;95804.69;5049423;28;20406;-79
2022/06/03 07:36:03;;;;;;;11.47;5.10;;;;;;;24.74;53.86;95794.69;5063976;28;20042;-80
2022/06/03 07:38:29;;;;;;;8.10;5.30;;;;;;;24.81;53.43;95795.28;5064265;28;20059;-82
2022/06/03 07:41:11;;;;;;;15.07;5.10;;;;;;;24.90;53.49;95800.34;5080431;28;20032;-80
2022/06/03 07:43:49;;;;;;;7.85;4.93;;;;;;;25.16;54.35;95800.56;5047772;28;20518;-78
2022/06/03 07:46:20;;;;;;;10.88;4.45;;;;;;;25.25;52.95;95799.00;5064446;28;20049;-79
2022/06/03 07:48:46;;;;;;;9.82;4.88;;;;;;;25.59;53.02;95799.78;5047161;28;20038;-80
2022/06/03 07:51:26;;;;;;;14.55;4.60;;;;;;;25.78;52.47;95808.44;5047524;28;20025;-79
2022/06/03 07:54:18;;;;;;;9.40;4.85;;;;;;;25.69;51.57;95816.34;5063377;28;20043;-80
2022/06/03 07:56:44;;;;;;;7.18;4.60;;;;;;;25.72;51.63;95815.00;5061980;28;20453;-78
2022/06/03 07:59:19;;;;;;;8.55;4.68;;;;;;;25.52;51.12;95811.00;5065096;28;20530;-79
2022/06/03 08:02:00;;;;;;;9.68;4.93;;;;;;;25.62;50.71;95815.75;5064491;28;20063;-79
2022/06/03 08:04:26;;;;;;;10.20;4.22;;;;;;;25.43;51.28;95810.66;5064238;28;20429;-79
2022/06/03 08:12:26;;;;;;;10.82;4.35;;;;;;;25.83;51.24;95810.41;5049936;28;20097;-79
2022/06/03 08:14:52;;;;;;;6.57;4.57;;;;;;;26.26;51.14;95826.81;5029916;28;20441;-81
2022/06/03 08:17:17;;;;;;;9.32;4.00;;;;;;;26.60;49.48;95822.84;5065156;28;20028;-80
2022/06/03 08:19:43;;;;;;;8.55;4.60;;;;;;;26.82;49.88;95825.38;5046624;28;20133;-81
2022/06/03 08:22:12;;;;;;;7.68;4.57;;;;;;;26.78;48.36;95819.59;5047058;28;20025;-81
2022/06/03 08:24:43;;;;;;;8.40;4.25;;;;;;;26.61;48.91;95825.31;5047028;28;20191;-80
2022/06/03 08:27:22;;;;;;;8.38;4.45;;;;;;;26.15;49.25;95835.00;5046791;28;20020;-79
2022/06/03 08:30:09;;;;;;;8.13;4.50;;;;;;;25.77;49.98;95839.75;5049116;28;20028;-79
2022/06/03 08:32:37;;;;;;;5.95;4.03;;;;;;;25.88;49.18;95841.47;5062885;28;20033;-79
2022/06/03 08:35:20;;;;;;;9.15;4.40;;;;;;;25.96;50.74;95833.81;5064538;28;20063;-79
2022/06/03 08:37:53;;;;;;;9.65;5.15;;;;;;;26.07;52.04;95829.22;5063281;28;20388;-79
2022/06/03 08:40:58;;;;;;;8.35;4.68;;;;;;;26.28;48.94;95836.44;5047588;28;20102;-80
2022/06/03 08:43:49;;;;;;;14.43;5.40;;;;;;;26.37;48.98;95836.81;5063523;28;20376;-79
2022/06/03 08:46:21;;;;;;;8.65;4.50;;;;;;;26.44;50.00;95830.22;5062577;28;20056;-79
2022/06/03 08:48:47;;;;;;;7.70;4.70;;;;;;;26.33;50.28;95837.59;5063080;28;20076;-80
2022/06/03 08:51:22;;;;;;;8.88;4.47;;;;;;;26.35;50.34;95838.16;5046764;28;20024;-79
2022/06/03 08:54:26;;;;;;;9.02;4.72;;;;;;;26.34;50.90;95839.25;5046928;28;20100;-80
2022/06/03 08:56:53;;;;;;;8.30;5.25;;;;;;;26.41;50.75;95842.56;5060539;28;20624;-79
2022/06/03 08:59:23;;;;;;;14.52;5.75;;;;;;;26.51;50.86;95839.03;5063074;28;20541;-79
2022/06/03 09:01:58;;;;;;;9.40;5.40;;;;;;;26.64;50.17;95843.19;5063248;28;20033;-79
2022/06/03 09:04:30;;;;;;;11.38;5.10;;;;;;;26.76;49.05;95849.28;5047149;28;20041;-80
2022/06/03 09:07:17;;;;;;;9.52;5.03;;;;;;;26.39;49.91;95842.84;5047377;28;20103;-79
2022/06/03 09:10:10;;;;;;;10.20;5.10;;;;;;;26.49;48.41;95858.56;5064871;28;20051;-79
2022/06/03 09:12:51;;;;;;;8.40;5.15;;;;;;;26.38;49.46;95854.09;5064516;28;20021;-80
2022/06/03 09:15:23;;;;;;;12.20;5.57;;;;;;;26.25;51.05;95858.97;5062699;28;20031;-79
2022/06/03 09:17:58;;;;;;;11.55;5.22;;;;;;;26.20;49.72;95855.38;5030225;28;20064;-79
2022/06/03 09:20:31;;;;;;;9.82;4.97;;;;;;;25.88;48.59;95854.38;5045883;28;20037;-81
2022/06/03 09:22:59;;;;;;;14.18;4.93;;;;;;;25.77;45.95;95856.22;5063701;28;20021;-80
2022/06/03 09:25:25;;;;;;;7.85;4.22;;;;;;;25.68;47.21;95859.47;5048550;28;20036;-79
2022/06/03 09:27:51;;;;;;;9.75;3.70;;;;;;;25.51;46.53;95848.59;5066484;28;20020;-81
2022/06/03 09:30:25;;;;;;;7.55;3.42;;;;;;;25.48;45.43;95853.78;5050462;28;20021;-82
2022/06/03 09:32:50;;;;;;;8.52;3.58;;;;;;;25.29;44.02;95857.75;5066493;28;20024;-79
2022/06/03 09:35:20;;;;;;;5.78;2.80;;;;;;;25.22;43.06;95850.81;5066680;28;20025;-78
2022/06/03 09:37:49;;;;;;;7.50;2.92;;;;;;;25.17;42.57;95849.72;5049671;28;20537;-79
2022/06/03 09:40:17;;;;;;;4.30;2.63;;;;;;;25.16;43.32;95847.22;5050295;28;20024;-79
2022/06/03 09:42:51;;;;;;;4.95;2.65;;;;;;;25.17;41.92;95843.38;5050204;28;20032;-81
2022/06/03 09:45:20;;;;;;;5.97;2.50;;;;;;;25.13;40.60;95848.59;5049868;28;20035;-80
2022/06/03 09:47:46;;;;;;;9.02;2.50;;;;;;;25.08;40.60;95848.53;5067142;28;20029;-79
2022/06/03 09:50:14;;;;;;;5.80;2.53;;;;;;;25.05;41.47;95847.13;5082961;28;20021;-79
2022/06/03 09:52:39;;;;;;;5.85;2.45;;;;;;;25.03;42.16;95849.31;5066562;28;20493;-80
2022/06/03 09:55:22;;;;;;;4.22;2.85;;;;;;;25.00;43.14;95849.84;5066094;28;20055;-80
2022/06/03 09:57:47;;;;;;;3.58;2.53;;;;;;;25.03;42.63;95848.47;5052015;28;20107;-79
2022/06/03 10:00:17;;;;;;;4.82;2.78;;;;;;;24.97;41.88;95841.28;5049778;28;20036;-80
2022/06/03 10:02:43;;;;;;;5.28;3.08;;;;;;;25.12;42.91;95846.06;5065829;28;20085;-79
2022/06/03 10:05:08;;;;;;;7.10;2.70;;;;;;;25.27;44.08;95842.66;5049829;28;20029;-79
2022/06/03 10:07:34;;;;;;;7.93;3.10;;;;;;;25.24;45.53;95833.03;5048840;28;20036;-79
2022/06/03 10:12:50;;;;;;;5.15;3.60;;;;;;;25.58;47.37;95831.91;5051935;28;20403;-80
2022/06/03 10:18:09;;;;;;;9.00;4.00;;;;;;;25.84;48.65;95831.28;5052593;28;20493;-81
2022/06/03 10:20:35;;;;;;;;;;;;;;;26.02;47.00;95830.81;5066082;28;20490;-79
2022/06/03 10:23:05;;;;;;;7.50;5.00;;;;;;;26.10;47.23;95832.22;5067410;28;19927;-80
2022/06/03 10:25:31;;;;;;;10.15;5.10;;;;;;;26.24;45.20;95834.50;5065415;28;20029;-80
2022/06/03 10:28:02;;;;;;;8.18;5.22;;;;;;;26.30;44.79;95841.69;5065688;28;20457;-80
2022/06/03 10:30:29;;;;;;;10.80;4.95;;;;;;;26.41;45.00;95831.56;5065820;28;20024;-79
2022/06/03 10:32:54;;;;;;;7.88;5.18;;;;;;;26.49;43.70;95828.31;5065008;28;20598;-80
2022/06/03 10:35:26;;;;;;;8.07;4.95;;;;;;;26.66;44.55;95828.06;5082583;28;20028;-79
2022/06/03 10:37:59;;;;;;;11.05;5.65;;;;;;;26.65;43.51;95825.59;5048277;28;20580;-80
2022/06/03 10:40:26;;;;;;;9.60;4.70;;;;;;;26.86;43.42;95820.16;5032363;28;20035;-79
2022/06/03 10:42:56;;;;;;;6.85;4.60;;;;;;;26.94;42.76;95825.09;5048515;28;20388;-79
2022/06/03 10:45:29;;;;;;;7.55;4.15;;;;;;;26.90;43.56;95833.09;5049425;28;20025;-79
2022/06/03 10:47:54;;;;;;;12.45;5.20;;;;;;;26.96;44.26;95830.34;5066439;28;20395;-80
2022/06/03 10:50:30;;;;;;;11.13;4.55;;;;;;;26.94;44.45;95825.09;5066089;28;20021;-80
2022/06/03 11:01:48;;;;;;;7.45;4.60;;;;;;;27.37;42.59;95813.06;5052078;28;20124;-80
2022/06/03 11:04:33;;;;;;;11.50;4.68;;;;;;;27.40;41.71;95807.84;5066157;28;20024;-79
2022/06/03 11:07:00;;;;;;;7.63;4.80;;;;;;;27.33;42.41;95801.78;5050242;28;20060;-81
2022/06/03 11:09:26;;;;;;;9.07;4.75;;;;;;;27.48;41.64;95802.84;5048311;28;20032;-79
2022/06/03 11:11:58;;;;;;;9.00;4.55;;;;;;;27.51;40.12;95803.13;5064094;28;20048;-79
2022/06/03 11:14:37;;;;;;;13.43;4.43;;;;;;;27.47;39.87;95798.47;5066018;28;20035;-80
2022/06/03 11:17:22;;;;;;;6.65;4.05;;;;;;;27.68;40.74;95799.28;5064139;28;20050;-79
2022/06/03 11:19:56;;;;;;;6.60;5.10;;;;;;;27.76;42.19;95793.19;5048266;28;20025;-79
2022/06/03 11:22:39;;;;;;;7.63;4.20;;;;;;;27.91;39.46;95782.44;5065498;28;20040;-79
2022/06/03 11:25:13;;;;;;;10.48;4.00;;;;;;;27.91;39.00;95782.44;5063987;28;20510;-80
2022/06/03 11:27:46;;;;;;;11.07;4.22;;;;;;;27.92;40.06;95773.88;5047949;28;20042;-79
2022/06/03 11:30:43;;;;;;;7.72;4.82;;;;;;;28.00;40.95;95776.03;5047354;28;20089;-80
2022/06/03 11:33:36;;;;;;;9.07;4.53;;;;;;;28.09;39.21;95767.19;5065548;28;20052;-80
2022/06/03 11:36:11;;;;;;;7.32;5.03;;;;;;;28.02;39.87;95771.06;5065845;28;20502;-79
2022/06/03 11:38:56;;;;;;;10.25;4.32;;;;;;;28.12;38.57;95770.22;5047385;28;20037;-80
2022/06/03 11:41:59;;;;;;;8.65;5.05;;;;;;;28.16;39.98;95766.88;5065598;28;20028;-80
2022/06/03 11:44:27;;;;;;;6.95;4.45;;;;;;;28.06;39.45;95765.84;5064005;28;20060;-79
2022/06/03 11:46:56;;;;;;;7.70;4.35;;;;;;;27.95;39.06;95772.50;5079755;28;20052;-79
2022/06/03 11:49:22;;;;;;;7.63;3.92;;;;;;;28.05;39.92;95766.91;5063835;28;20486;-79
2022/06/03 11:51:47;;;;;;;8.40;4.15;;;;;;;28.17;39.18;95766.59;5046833;28;20027;-80
2022/06/03 11:54:15;;;;;;;11.27;4.50;;;;;;;28.25;38.70;95766.03;5065692;28;20036;-80
2022/06/03 11:56:41;;;;;;;4.78;3.70;;;;;;;28.24;37.47;95766.31;5030573;28;20432;-79
2022/06/03 11:59:23;;;;;;;5.97;3.50;;;;;;;28.25;36.77;95765.19;5046725;28;20486;-81
2022/06/03 12:01:48;;;;;;;9.93;4.07;;;;;;;28.24;36.37;95766.31;5065430;28;20040;-79
2022/06/03 12:04:36;;;;;;;9.05;3.40;;;;;;;28.32;36.67;95763.00;5064506;28;20422;-79
2022/06/03 12:07:20;;;;;;;6.13;3.53;;;;;;;28.37;36.66;95756.63;5048283;28;20482;-80
2022/06/03 12:10:13;;;;;;;5.82;3.17;;;;;;;28.30;35.98;95748.63;5065135;28;20503;-79
2022/06/03 12:15:53;;;;;;;9.63;3.63;;;;;;;28.16;34.95;95759.47;5050774;28;20119;-81
2022/06/03 12:18:31;;;;;;;5.10;3.10;;;;;;;28.10;34.48;95760.59;5065226;28;20024;-79
2022/06/03 12:20:57;;;;;;;5.93;3.00;;;;;;;28.05;34.99;95752.34;5064838;28;20051;-79
2022/06/03 12:23:23;;;;;;;6.75;3.00;;;;;;;28.02;35.81;95749.03;5047824;28;20406;-80
2022/06/03 12:25:48;;;;;;;9.05;3.30;;;;;;;28.01;36.60;95754.81;5064802;28;20036;-79
2022/06/03 12:28:25;;;;;;;7.05;3.67;;;;;;;28.02;37.03;95751.78;5065091;28;20028;-79
2022/06/03 12:30:53;;;;;;;6.15;3.33;;;;;;;27.97;34.73;95762.81;5064257;28;20028;-79
2022/06/03 12:33:20;;;;;;;6.88;3.50;;;;;;;27.93;35.10;95764.50;5063694;28;20043;-79
2022/06/03 12:35:48;;;;;;;14.77;4.47;;;;;;;27.84;37.82;95760.69;5064731;28;20055;-79
2022/06/03 12:38:19;;;;;;;9.57;5.13;;;;;;;27.73;39.70;95768.97;5064947;28;20039;-80
2022/06/03 12:41:05;;;;;;;9.90;5.20;;;;;;;27.73;39.76;95760.69;5064889;28;20028;-80
2022/06/03 12:43:46;;;;;;;8.45;5.20;;;;;;;27.81;41.25;95766.75;5049159;28;20072;-80
2022/06/03 12:46:35;;;;;;;8.32;4.78;;;;;;;27.70;38.70;95755.75;5064025;28;20128;-80
2022/06/03 12:49:01;;;;;;;4.90;4.13;;;;;;;27.67;39.97;95760.94;5046572;28;20128;-79
2022/06/03 12:51:30;;;;;;;6.75;4.68;;;;;;;27.61;39.54;95754.63;5062627;28;20069;-80
2022/06/03 12:54:03;;;;;;;9.10;4.20;;;;;;;27.51;40.23;95748.06;5063867;28;20028;-79
2022/06/03 12:56:35;;;;;;;5.60;4.38;;;;;;;27.44;40.81;95742.00;5063974;28;20035;-79
2022/06/03 12:59:14;;;;;;;7.03;4.15;;;;;;;27.34;41.20;95744.78;5064385;28;20480;-80
2022/06/03 13:01:49;;;;;;;8.73;4.47;;;;;;;27.28;41.30;95760.47;5051127;28;20047;-79
2022/06/03 13:04:46;;;;;;;7.10;4.60;;;;;;;27.28;41.08;95760.47;5050882;28;20039;-79